Latest Coastal Weather Observations for Moorabbin Airport

IDV60701

Issued at 3:42 pm EST Wednesday 20 September 2017 (issued every 10 minutes, with the page automatically refreshed every 10 minutes)

About coastal observations | Map of coastal stations | Coastal observations for VIC | Marine services | Other Formats
Station Details ID: 086077 Name: MOORABBIN AIRPORT Lat: -37.98 Lon: 145.10 Height: 12.1 m
Data from the previous 72 hours. | See also: Recent months at Moorabbin Airport
Date/Time
EST
Temp
°C
Wind Pressure Rain since
9am
mm
Weather Cloud Vis
km
Sea
Height
m
Swell
Dir  Spd
kts
Gust
kts
hPa Trend Height
m
Period
s
Dir
20/03:30pm 18.5 N 14 19 1015.2 - 0.0 - Clear 10 - - - -
20/03:00pm 18.2 N 13 19 1015.7 - 0.0 - - 10 - - - -
20/02:30pm 18.2 N 13 21 1015.9 - 0.0 - - 10 - - - -
20/02:00pm 17.7 N 15 22 1016.3 - 0.0 - - 10 - - - -
20/01:37pm 17.6 N 15 29 1016.7 - 0.0 - - 10 - - - -
20/01:30pm 17.5 N 13 29 1016.8 - 0.0 - - 10 - - - -
20/01:00pm 16.9 N 15 21 1017.7 - 0.0 - - 10 - - - -
20/12:30pm 16.3 N 12 16 1018.6 - 0.0 - - 10 - - - -
20/12:00pm 16.0 NNW 13 17 1019.3 - 0.0 - - 10 - - - -
20/11:30am 15.4 N 12 17 1019.4 - 0.0 - - 10 - - - -
20/11:00am 14.3 N 15 21 1019.8 - 0.0 - - 10 - - - -
20/10:30am 13.7 N 15 21 1019.8 - 0.0 - - 10 - - - -
20/10:00am 13.1 NNW 13 17 1020.3 - 0.0 - - 10 - - - -
20/09:30am 12.7 N 14 20 1020.4 - 0.0 - - 10 - - - -
20/09:00am 12.2 N 10 15 1021.0 - 0.2 - - 10 - - - -
20/08:30am 11.1 N 10 13 1021.0 - 0.2 - - 10 - - - -
20/08:00am 9.9 N 9 11 1021.1 - 0.2 - - 10 - - - -
20/07:30am 8.5 N 7 9 1021.2 - 0.2 - - 10 - - - -
20/07:00am 6.7 N 6 7 1021.3 - 0.2 - - 10 - - - -
20/06:30am 6.2 N 5 6 1021.5 - 0.2 - - 10 - - - -
20/06:00am 5.5 N 6 6 1021.2 - 0.2 - - 10 - - - -
20/05:30am 5.6 N 7 8 1021.0 - 0.2 - - 10 - - - -
20/05:00am 6.5 N 6 7 1020.8 - 0.2 - - 10 - - - -
20/04:30am 6.7 N 5 6 1020.7 - 0.2 - - 10 - - - -
20/04:00am 7.3 N 6 7 1020.6 - 0.2 - - 10 - - - -
20/03:30am 7.2 N 7 8 1020.7 - 0.2 - Partly cloudy 10 - - - -
20/03:00am 7.5 N 5 7 1020.9 - 0.2 - Cloudy 10 - - - -
20/02:30am 7.7 N 6 7 1021.1 - 0.2 - - 10 - - - -
20/02:00am 7.5 N 4 5 1021.2 - 0.2 - Partly cloudy 10 - - - -
20/01:30am 7.8 N 5 6 1021.4 - 0.2 - Cloudy 10 - - - -
20/01:00am 7.0 N 5 6 1021.7 - 0.2 - Partly cloudy 10 - - - -
20/12:30am 8.0 NNW 4 5 1021.9 - 0.2 - Partly cloudy 10 - - - -
20/12:00am 8.7 NW 5 6 1022.0 - 0.2 - Mostly clear 10 - - - -
 
Date/Time
EST
Temp
°C
Wind Pressure Rain since
9am
mm
Weather Cloud Vis
km
Sea
Height
m
Swell
Dir  Spd
kts
Gust
kts
hPa Trend Height
m
Period
s
Dir
19/11:30pm 8.7 NW 5 6 1022.2 - 0.2 - - 10 - - - -
19/11:00pm 8.2 NW 4 5 1022.3 - 0.2 - - 10 - - - -
19/10:30pm 9.1 WNW 3 4 1022.5 - 0.2 - - 10 - - - -
19/10:00pm 9.3 WNW 3 4 1022.7 - 0.2 - Partly cloudy 10 - - - -
19/09:30pm 9.9 NNW 3 5 1022.5 - 0.2 - Cloudy 10 - - - -
19/09:00pm 9.7 NNW 3 3 1022.5 - 0.2 - Cloudy 10 - - - -
19/08:30pm 9.6 N 4 5 1022.4 - 0.2 - Cloudy 10 - - - -
19/08:00pm 10.5 CALM 0 0 1022.3 - 0.2 - Partly cloudy 10 - - - -
19/07:30pm 10.5 SW 3 4 1022.2 - 0.2 - Partly cloudy 10 - - - -
19/07:00pm 10.8 SSW 6 8 1021.9 - 0.2 - Cloudy 10 - - - -
19/06:30pm 10.9 SSW 6 8 1021.7 - 0.2 - Partly cloudy 10 - - - -
19/06:00pm 11.3 SSW 6 7 1021.3 - 0.2 - Mostly cloudy 10 - - - -
19/05:30pm 11.2 SSW 6 8 1021.1 - 0.2 - - 10 - - - -
19/05:00pm 11.9 SSW 7 11 1021.0 - 0.2 - - 10 - - - -
19/04:30pm 11.8 SSW 10 14 1020.8 - 0.2 - Partly cloudy 10 - - - -
19/04:00pm 12.2 SW 8 12 1020.6 - 0.2 - - 10 - - - -
19/03:30pm 12.5 SW 8 11 1020.4 - 0.2 - Partly cloudy 10 - - - -
19/03:00pm 12.1 WSW 9 12 1020.6 - 0.2 - Mostly cloudy 10 - - - -
19/02:30pm 12.8 SW 9 13 1020.5 - 0.2 - Partly cloudy 10 - - - -
19/02:00pm 12.1 SW 10 15 1020.4 - 0.2 - Partly cloudy 10 - - - -
19/01:30pm 12.7 SW 10 14 1020.3 - 0.0 - Partly cloudy 10 - - - -
19/01:00pm 12.4 WSW 12 16 1020.2 - 0.0 - Partly cloudy 10 - - - -
19/12:30pm 12.0 WSW 11 16 1020.3 - 0.0 - Partly cloudy 10 - - - -
19/12:00pm 11.9 WSW 10 15 1020.1 - 0.0 - Cloudy 10 - - - -
19/11:30am 10.3 WSW 11 16 1020.2 - 0.0 - Partly cloudy 10 - - - -
19/11:00am 12.1 W 14 21 1019.7 - 0.0 - Partly cloudy 10 - - - -
19/10:30am 11.9 W 13 19 1019.5 - 0.0 - Partly cloudy 10 - - - -
19/10:00am 11.3 W 15 20 1019.4 - 0.0 - Partly cloudy 10 - - - -
19/09:30am 11.0 W 13 21 1019.1 - 0.0 - Partly cloudy 10 - - - -
19/09:00am 10.7 WNW 14 20 1018.8 - 0.2 - - 10 - - - -
19/08:30am 10.0 W 13 19 1018.4 - 0.2 - Partly cloudy 10 - - - -
19/08:00am 10.0 W 15 24 1017.9 - 0.2 - Partly cloudy 10 - - - -
19/07:30am 9.7 W 12 18 1017.5 - 0.2 - Partly cloudy 10 - - - -
19/07:00am 9.3 W 12 21 1016.9 - 0.2 - Partly cloudy 10 - - - -
19/06:30am 8.9 WNW 12 18 1016.6 - 0.2 - Partly cloudy 10 - - - -
19/06:00am 9.0 WNW 11 16 1015.9 - 0.2 - Cloudy 10 - - - -
19/05:30am 9.4 W 14 19 1015.5 - 0.2 - Partly cloudy 10 - - - -
19/05:00am 9.6 W 14 21 1015.1 - 0.2 - Partly cloudy 10 - - - -
19/04:30am 9.7 WNW 13 20 1014.6 - 0.2 - Partly cloudy 10 - - - -
19/04:00am 9.9 W 14 23 1014.2 - 0.2 - Partly cloudy 10 - - - -
19/03:30am 9.9 WNW 14 23 1014.1 - 0.2 - Partly cloudy 10 - - - -
19/03:00am 10.3 W 16 22 1013.6 - 0.2 - Cloudy 10 - - - -
19/02:30am 10.7 WNW 11 23 1013.5 - 0.2 - Partly cloudy 10 - - - -
19/02:00am 10.9 WNW 12 20 1013.4 - 0.2 - Partly cloudy 10 - - - -
19/01:30am 11.1 WNW 13 24 1013.3 - 0.2 - Partly cloudy 10 - - - -
19/01:00am 11.4 WNW 12 20 1013.1 - 0.2 - Cloudy 10 - - - -
19/12:30am 11.6 WNW 13 19 1012.9 - 0.2 - Partly cloudy 10 - - - -
19/12:12am 11.9 WNW 15 25 1012.7 - 0.2 - Partly cloudy 10 - - - -
19/12:00am 12.0 WNW 11 18 1012.7 - 0.2 - Cloudy 10 - - - -
 
Date/Time
EST
Temp
°C
Wind Pressure Rain since
9am
mm
Weather Cloud Vis
km
Sea
Height
m
Swell
Dir  Spd
kts
Gust
kts
hPa Trend Height
m
Period
s
Dir
18/11:35pm 12.4 NW 16 27 1011.6 - 0.2 - - 10 - - - -
18/11:30pm 12.3 NW 15 21 1011.6 - 0.2 - - 10 - - - -
18/11:03pm 12.6 NW 15 25 1012.0 - 0.2 - - 10 - - - -
18/11:00pm 12.6 NW 15 21 1012.1 - 0.2 - - 10 - - - -
18/10:30pm 13.0 NW 13 21 1012.1 - 0.2 - - 10 - - - -
18/10:00pm 13.0 NW 13 21 1012.2 - 0.2 - - 10 - - - -
18/09:30pm 13.5 NW 15 25 1012.1 - 0.2 - Cloudy 10 - - - -
18/09:27pm 13.6 NW 15 25 1011.9 - 0.2 - Cloudy 10 - - - -
18/09:00pm 13.7 NW 14 21 1011.7 - 0.2 Recent precip. Cloudy 10 - - - -
18/08:30pm 13.7 NW 15 21 1011.3 - 0.2 - Partly cloudy 10 - - - -
18/08:00pm 13.4 NW 19 35 1011.1 - 0.0 - Partly cloudy 10 - - - -
18/07:30pm 14.9 NW 22 33 1010.9 - 0.0 - Partly cloudy 10 - - - -
18/07:00pm 15.8 NW 24 36 1010.2 - 0.0 - Partly cloudy 10 - - - -
18/06:30pm 16.4 WNW 22 39 1009.1 - 0.0 - Cloudy 10 - - - -
18/06:23pm 16.3 WNW 22 39 1008.7 - 0.0 - Partly cloudy 10 - - - -
18/06:01pm 18.2 WNW 17 28 1008.4 - 0.0 - Partly cloudy 10 - - - -
18/06:00pm 18.7 WNW 17 25 1008.4 - 0.0 - Cloudy 10 - - - -
18/05:50pm 20.3 NW 16 26 1008.0 - 0.0 - Partly cloudy 10 - - - -
18/05:30pm 21.4 NNW 14 24 1007.7 - 0.0 - Cloudy 10 - - - -
18/05:00pm 21.1 N 19 26 1007.2 - 0.0 - Partly cloudy 10 - - - -
18/04:42pm 21.1 N 17 27 1007.0 - 0.0 - - 10 - - - -
18/04:30pm 20.8 N 17 22 1007.2 - 0.0 - - 10 - - - -
18/04:00pm 21.0 N 19 29 1007.6 - 0.0 - - 10 - - - -
18/03:30pm 20.7 N 25 36 1007.4 - 0.0 - - 10 - - - -
18/03:00pm 20.8 N 25 36 1007.8 - 0.0 - - 10 - - - -
18/02:30pm 20.5 N 26 36 1007.9 - 0.0 - - 10 - - - -
18/02:05pm 20.8 N 24 34 1008.3 - 0.0 - - 10 - - - -
18/02:00pm 20.5 N 25 34 1008.1 - 0.0 - - 10 - - - -
18/01:49pm 20.7 N 24 34 1008.6 - 0.0 - - 10 - - - -
18/01:30pm 20.3 N 27 36 1008.6 - 0.0 - - 10 - - - -
18/01:00pm 20.1 N 26 37 1009.3 - 0.0 - - 10 - - - -
18/12:30pm 20.3 N 30 40 1009.7 - 0.0 - - 10 - - - -
18/12:00pm 20.7 N 31 42 1010.1 - 0.0 - - 10 - - - -
18/11:30am 20.0 N 27 38 1010.4 - 0.0 - - 10 - - - -
18/11:19am 19.6 N 32 42 1010.4 - 0.0 - - 10 - - - -
18/11:15am 19.5 N 31 45 1010.3 - 0.0 - - 10 - - - -
18/11:07am 18.9 N 25 45 1010.6 - 0.0 - - 10 - - - -
18/11:00am 19.0 N 24 34 1011.2 - 0.0 - - 10 - - - -
18/10:30am 17.9 N 24 35 1011.5 - 0.0 - - 10 - - - -
18/10:03am 17.3 N 22 33 1011.8 - 0.0 - - 10 - - - -
18/10:00am 17.2 N 21 28 1012.1 - 0.0 - - 10 - - - -
18/09:30am 16.6 NNE 19 28 1012.6 - 0.0 - - 10 - - - -
18/09:00am 15.9 N 22 33 1012.9 - 0.0 - - 10 - - - -
18/08:45am 15.7 N 20 31 1012.9 - 0.0 - - 10 - - - -
18/08:30am 15.8 N 21 30 1013.6 - 0.0 - - 10 - - - -
18/08:05am 14.8 N 17 27 1014.4 - 0.0 - - 10 - - - -
18/08:00am 14.7 N 17 25 1014.3 - 0.0 - - 10 - - - -
18/07:30am 14.1 N 17 21 1014.7 - 0.0 - - 10 - - - -
18/07:00am 13.1 N 16 24 1015.0 - 0.0 - - 10 - - - -
18/06:30am 13.6 N 21 27 1014.5 - 0.0 - - 10 - - - -
18/06:00am 13.5 N 19 27 1014.6 - 0.0 - - 10 - - - -
18/05:30am 13.4 N 19 24 1014.2 - 0.0 - - 10 - - - -
18/05:00am 13.6 N 22 29 1014.3 - 0.0 - - 10 - - - -
18/04:30am 13.2 NNE 16 23 1014.2 - 0.0 - - 10 - - - -
18/04:00am 12.5 N 15 21 1015.1 - 0.0 - - 10 - - - -
18/03:30am 11.6 N 12 16 1015.8 - 0.0 - - 10 - - - -
18/03:00am 12.3 N 17 21 1016.3 - 0.0 - Partly cloudy 10 - - - -
18/02:30am 12.2 NNE 16 21 1016.8 - 0.0 - - 10 - - - -
18/02:00am 12.8 N 18 23 1017.2 - 0.0 - - 10 - - - -
18/01:30am 12.7 N 17 24 1017.5 - 0.0 - - 10 - - - -
18/01:00am 12.4 N 19 25 1017.6 - 0.0 - - 10 - - - -
18/12:30am 12.6 N 18 25 1017.9 - 0.0 - - 10 - - - -
18/12:00am 12.6 N 17 24 1018.2 - 0.0 - - 10 - - - -
 
Date/Time
EST
Temp
°C
Wind Pressure Rain since
9am
mm
Weather Cloud Vis
km
Sea
Height
m
Swell
Dir  Spd
kts
Gust
kts
hPa Trend Height
m
Period
s
Dir
17/11:30pm 12.5 N 19 26 1018.6 - 0.0 - - 10 - - - -
17/11:00pm 12.8 N 17 25 1018.8 - 0.0 - - 10 - - - -
17/10:30pm 12.4 N 15 21 1019.3 - 0.0 - - 10 - - - -
17/10:00pm 12.3 N 14 19 1019.8 - 0.0 - - 10 - - - -
17/09:30pm 12.1 N 12 16 1020.2 - 0.0 - - 10 - - - -
17/09:00pm 11.6 N 10 14 1020.5 - 0.0 - - 10 - - - -
17/08:30pm 12.6 N 11 16 1020.5 - 0.0 - - 10 - - - -
17/08:00pm 12.8 N 12 16 1020.6 - 0.0 - - 10 - - - -
17/07:30pm 13.0 N 11 17 1020.5 - 0.0 - - 10 - - - -
17/07:00pm 13.5 N 13 18 1020.3 - 0.0 - - 10 - - - -
17/06:30pm 13.8 N 12 15 1020.1 - 0.0 - - 10 - - - -
17/06:00pm 15.3 N 15 21 1019.8 - 0.0 - - 10 - - - -
17/05:30pm 16.1 N 16 22 1019.7 - 0.0 - - 10 - - - -
17/05:00pm 16.6 N 16 23 1019.9 - 0.0 - - 10 - - - -
17/04:30pm 17.1 N 15 20 1020.0 - 0.0 - - 10 - - - -
17/04:00pm 17.4 N 16 21 1020.2 - 0.0 - - 10 - - - -

Other Formats:

Comma delimited format used in spreadsheet applications
http://www.bom.gov.au/fwo/IDV60701/IDV60701.94870.axf

JavaScript Object Notation format (JSON) in row-major order
http://www.bom.gov.au/fwo/IDV60701/IDV60701.94870.json